createdAt,value
2023-03-29T00:01:36.157Z,5.83
2023-03-29T00:04:10.166Z,5.79
2023-03-29T00:06:42.878Z,5.67
2023-03-29T00:09:15.595Z,5.79
2023-03-29T00:11:48.260Z,5.85
2023-03-29T00:14:20.887Z,5.80
2023-03-29T00:16:53.488Z,5.66
2023-03-29T00:19:26.514Z,5.75
2023-03-29T00:21:59.070Z,5.83
2023-03-29T00:24:31.872Z,5.90
2023-03-29T00:27:04.753Z,5.95
2023-03-29T00:29:37.697Z,5.98
2023-03-29T00:32:10.244Z,6.03
2023-03-29T00:34:45.651Z,6.04
2023-03-29T00:37:19.228Z,6.12
2023-03-29T00:39:51.751Z,5.96
2023-03-29T00:42:26.128Z,6.11
2023-03-29T00:45:16.379Z,5.96
2023-03-29T00:47:58.030Z,5.84
2023-03-29T00:50:36.265Z,5.87
2023-03-29T00:53:21.614Z,6.09
2023-03-29T00:56:06.300Z,5.91
2023-03-29T00:58:47.661Z,6.10
2023-03-29T01:01:34.050Z,5.95
2023-03-29T01:04:20.673Z,6.04
2023-03-29T01:07:12.947Z,6.13
2023-03-29T01:09:55.475Z,6.24
2023-03-29T01:12:39.074Z,6.07
2023-03-29T01:15:17.352Z,6.09
2023-03-29T01:17:53.827Z,6.26
2023-03-29T01:20:51.013Z,6.19
2023-03-29T01:23:38.262Z,6.07
2023-03-29T01:26:53.460Z,6.19
2023-03-29T01:29:48.932Z,6.34
2023-03-29T01:32:55.521Z,6.35
2023-03-29T01:35:44.672Z,6.29
2023-03-29T01:38:39.377Z,6.42
2023-03-29T01:41:12.516Z,6.42
2023-03-29T01:43:58.861Z,6.24
2023-03-29T01:46:53.164Z,6.32
2023-03-29T01:49:34.597Z,6.56
2023-03-29T01:52:13.075Z,6.42
2023-03-29T01:55:21.672Z,6.50
2023-03-29T01:57:59.066Z,6.55
2023-03-29T02:00:36.221Z,6.50
2023-03-29T02:03:10.523Z,6.55
2023-03-29T02:05:45.960Z,6.66
2023-03-29T02:08:22.244Z,6.63
2023-03-29T02:10:54.900Z,6.51
2023-03-29T02:13:27.464Z,6.66
2023-03-29T02:16:03.086Z,6.62
2023-03-29T02:18:36.312Z,6.74
2023-03-29T02:21:30.488Z,6.61
2023-03-29T02:24:11.206Z,6.77
2023-03-29T02:26:44.002Z,6.75
2023-03-29T02:29:17.073Z,6.64
2023-03-29T02:32:05.670Z,6.75
2023-03-29T02:34:56.535Z,6.83
2023-03-29T02:37:34.446Z,6.74
2023-03-29T02:40:09.098Z,6.83
2023-03-29T02:42:45.752Z,6.85
2023-03-29T02:45:19.613Z,6.88
2023-03-29T02:47:58.063Z,6.97
2023-03-29T02:50:40.056Z,6.95
2023-03-29T02:53:19.773Z,7.07
2023-03-29T02:55:52.730Z,7.09
2023-03-29T02:58:26.680Z,6.85
2023-03-29T03:01:02.530Z,7.00
2023-03-29T03:03:35.760Z,7.03
2023-03-29T03:06:08.639Z,6.94
2023-03-29T03:08:42.016Z,7.15
2023-03-29T03:11:15.229Z,7.08
2023-03-29T03:13:47.730Z,7.03
2023-03-29T03:16:20.520Z,7.10
2023-03-29T03:18:54.770Z,7.25
2023-03-29T03:21:30.419Z,7.18
2023-03-29T03:24:03.219Z,6.95
2023-03-29T03:26:38.193Z,7.16
2023-03-29T03:29:11.252Z,7.15
2023-03-29T03:31:44.503Z,7.15
2023-03-29T03:34:17.449Z,7.07
2023-03-29T03:36:50.560Z,7.14
2023-03-29T03:39:23.103Z,7.14
2023-03-29T03:41:55.820Z,7.16
2023-03-29T03:44:28.391Z,7.09
2023-03-29T03:47:00.969Z,7.12
2023-03-29T03:49:33.674Z,7.08
2023-03-29T03:52:06.659Z,7.28
2023-03-29T03:54:39.612Z,7.31
2023-03-29T03:57:12.746Z,7.09
2023-03-29T03:59:45.390Z,7.19
2023-03-29T04:02:18.054Z,7.18
2023-03-29T04:04:50.708Z,7.19
2023-03-29T04:07:25.344Z,7.17
2023-03-29T04:09:57.829Z,7.18
2023-03-29T04:12:30.619Z,7.21
2023-03-29T04:15:04.001Z,7.00
2023-03-29T04:17:36.999Z,7.16
2023-03-29T04:20:12.390Z,7.05
2023-03-29T04:22:45.221Z,7.20
2023-03-29T04:25:18.783Z,7.18
2023-03-29T04:27:51.302Z,7.26
2023-03-29T04:30:23.863Z,7.26
2023-03-29T04:32:56.926Z,7.21
2023-03-29T04:35:30.036Z,7.15
2023-03-29T04:38:04.409Z,7.19
2023-03-29T04:40:38.344Z,7.41
2023-03-29T04:43:10.964Z,7.26
2023-03-29T04:45:43.624Z,7.22
2023-03-29T04:48:16.309Z,7.37
2023-03-29T04:50:48.924Z,7.35
2023-03-29T04:53:22.212Z,7.18
2023-03-29T04:55:55.564Z,7.29
2023-03-29T04:58:32.277Z,7.16
2023-03-29T05:01:05.792Z,7.34
2023-03-29T05:03:38.776Z,7.24
2023-03-29T05:06:12.123Z,7.20
2023-03-29T05:08:44.793Z,7.46
2023-03-29T05:11:17.599Z,7.43
2023-03-29T05:13:50.090Z,7.55
2023-03-29T05:16:23.099Z,7.52
2023-03-29T05:18:57.103Z,7.41
2023-03-29T05:21:29.718Z,7.39
2023-03-29T05:24:02.784Z,7.36
2023-03-29T05:26:35.424Z,7.54
2023-03-29T05:29:09.124Z,7.61
2023-03-29T05:31:41.804Z,7.65
2023-03-29T05:34:14.420Z,7.61
2023-03-29T05:36:46.880Z,7.74
2023-03-29T05:39:19.389Z,7.62
2023-03-29T05:41:51.958Z,7.76
2023-03-29T05:44:24.526Z,7.80
2023-03-29T05:46:57.229Z,7.90
2023-03-29T05:49:29.740Z,7.81
2023-03-29T05:52:02.418Z,7.83
2023-03-29T05:54:34.935Z,7.79
2023-03-29T05:57:07.498Z,7.81
2023-03-29T05:59:40.108Z,7.84
2023-03-29T06:02:12.766Z,7.88
2023-03-29T06:04:45.472Z,8.03
2023-03-29T06:07:18.234Z,8.09
2023-03-29T06:09:50.755Z,8.15
2023-03-29T06:12:24.709Z,8.19
2023-03-29T06:15:03.104Z,8.24
2023-03-29T06:17:36.224Z,8.29
2023-03-29T06:20:10.786Z,8.16
2023-03-29T06:22:43.335Z,8.31
2023-03-29T06:25:17.445Z,8.53
2023-03-29T06:27:50.062Z,8.54
2023-03-29T06:30:22.639Z,8.31
2023-03-29T06:32:55.594Z,8.47
2023-03-29T06:35:28.283Z,8.59
2023-03-29T06:38:01.504Z,8.67
2023-03-29T06:40:34.376Z,8.65
2023-03-29T06:43:07.303Z,8.48
2023-03-29T06:45:40.668Z,8.77
2023-03-29T06:48:13.310Z,8.97
2023-03-29T06:50:49.035Z,8.97
2023-03-29T06:55:54.650Z,9.27
2023-03-29T06:58:27.481Z,9.35
2023-03-29T07:01:04.746Z,9.43
2023-03-29T07:03:39.128Z,9.38
2023-03-29T07:06:12.187Z,9.35
2023-03-29T07:08:44.979Z,9.29
2023-03-29T07:11:19.107Z,9.54
2023-03-29T07:13:51.584Z,9.50
2023-03-29T07:16:24.288Z,9.57
2023-03-29T07:18:57.391Z,9.58
2023-03-29T07:21:31.044Z,9.53
2023-03-29T07:24:04.787Z,9.87
2023-03-29T07:26:37.949Z,9.69
2023-03-29T07:29:10.667Z,9.84
2023-03-29T07:31:44.196Z,9.85
2023-03-29T07:34:17.484Z,9.99
2023-03-29T07:36:50.019Z,9.89
2023-03-29T07:39:22.718Z,9.98
2023-03-29T07:41:58.158Z,9.95
2023-03-29T07:44:30.769Z,9.97
2023-03-29T07:47:04.500Z,9.96
2023-03-29T07:49:36.963Z,9.96
2023-03-29T07:52:09.571Z,9.88
2023-03-29T07:54:42.113Z,9.99
2023-03-29T07:57:14.741Z,9.98
2023-03-29T07:59:47.273Z,9.98
2023-03-29T08:02:21.126Z,9.86
2023-03-29T08:04:54.563Z,9.79
2023-03-29T08:07:27.339Z,9.71
2023-03-29T08:10:00.072Z,9.84
2023-03-29T08:12:32.645Z,9.71
2023-03-29T08:15:06.410Z,9.81
2023-03-29T08:17:39.733Z,9.78
2023-03-29T08:20:16.291Z,10.04
2023-03-29T08:22:48.919Z,9.93
2023-03-29T08:25:21.778Z,9.81
2023-03-29T08:27:54.389Z,10.17
2023-03-29T08:30:27.604Z,10.31
2023-03-29T08:33:00.249Z,10.30
2023-03-29T08:35:32.820Z,10.27
2023-03-29T08:38:05.381Z,10.23
2023-03-29T08:40:38.072Z,10.48
2023-03-29T08:43:46.393Z,10.87
2023-03-29T08:46:35.408Z,11.23
2023-03-29T08:49:12.400Z,11.19
2023-03-29T08:51:57.810Z,11.37
2023-03-29T08:54:43.332Z,11.05
2023-03-29T08:57:31.559Z,11.15
2023-03-29T09:00:10.488Z,11.16
2023-03-29T09:02:45.808Z,11.02
2023-03-29T09:05:28.042Z,11.09
2023-03-29T09:08:01.769Z,11.05
2023-03-29T09:11:08.424Z,11.43
2023-03-29T09:14:05.632Z,11.55
2023-03-29T09:17:10.483Z,11.72
2023-03-29T09:19:59.571Z,11.47
2023-03-29T09:23:10.254Z,11.11
2023-03-29T09:26:16.222Z,11.75
2023-03-29T09:29:10.000Z,11.56
2023-03-29T09:31:45.977Z,11.08
2023-03-29T09:34:30.822Z,11.75
2023-03-29T09:37:31.956Z,11.27
2023-03-29T09:40:15.715Z,11.41
2023-03-29T09:42:52.621Z,11.45
2023-03-29T09:45:25.364Z,11.56
2023-03-29T09:48:09.036Z,11.25
2023-03-29T09:50:51.631Z,11.17
2023-03-29T09:53:24.912Z,10.97
2023-03-29T09:55:59.408Z,11.51
2023-03-29T09:58:32.755Z,11.04
2023-03-29T10:01:11.167Z,11.26
2023-03-29T10:03:53.326Z,11.32
2023-03-29T10:06:27.970Z,11.24
2023-03-29T10:09:01.171Z,11.47
2023-03-29T10:11:38.455Z,11.83
2023-03-29T10:14:14.922Z,11.74
2023-03-29T10:16:56.374Z,11.45
2023-03-29T10:19:35.117Z,11.71
2023-03-29T10:22:21.919Z,11.73
2023-03-29T10:24:57.239Z,12.07
2023-03-29T10:27:34.656Z,12.28
2023-03-29T10:30:21.380Z,12.42
2023-03-29T10:32:59.901Z,12.53
2023-03-29T10:35:44.205Z,12.77
2023-03-29T10:38:22.914Z,12.96
2023-03-29T10:41:07.983Z,13.04
2023-03-29T10:43:51.159Z,13.18
2023-03-29T10:46:30.512Z,13.36
2023-03-29T10:49:10.112Z,13.43
2023-03-29T10:51:52.023Z,13.58
2023-03-29T10:54:24.746Z,13.65
2023-03-29T10:57:05.182Z,13.74
2023-03-29T10:59:57.745Z,13.45
2023-03-29T11:03:16.218Z,13.88
2023-03-29T11:06:03.047Z,14.24
2023-03-29T11:08:59.593Z,14.26
2023-03-29T11:12:08.269Z,14.12
2023-03-29T11:15:10.882Z,14.25
2023-03-29T11:18:02.843Z,14.47
2023-03-29T11:21:12.863Z,15.01
2023-03-29T11:24:25.633Z,14.77
2023-03-29T11:27:00.715Z,14.48
2023-03-29T11:30:06.524Z,14.74
2023-03-29T11:33:08.556Z,14.80
2023-03-29T11:36:04.834Z,14.72
2023-03-29T11:39:15.748Z,15.00
2023-03-29T11:42:01.458Z,14.86
2023-03-29T11:44:38.433Z,15.07
2023-03-29T11:47:37.200Z,15.09
2023-03-29T11:50:22.737Z,15.26
2023-03-29T11:53:17.728Z,15.35
2023-03-29T11:55:52.631Z,15.41
2023-03-29T11:58:39.035Z,15.54
2023-03-29T12:01:36.681Z,15.47
2023-03-29T12:04:31.341Z,15.71
2023-03-29T12:07:21.481Z,16.14
2023-03-29T12:10:02.855Z,15.66
2023-03-29T12:12:59.600Z,15.47
2023-03-29T12:15:43.721Z,15.61
2023-03-29T12:18:31.966Z,15.30
2023-03-29T12:21:18.202Z,15.47
2023-03-29T12:23:52.280Z,15.56
2023-03-29T12:26:45.897Z,15.58
2023-03-29T12:30:18.485Z,15.84
2023-03-29T12:33:43.332Z,16.09
2023-03-29T12:37:12.460Z,15.64
2023-03-29T12:39:45.341Z,15.42
2023-03-29T12:42:22.136Z,15.23
2023-03-29T12:45:00.570Z,15.94
2023-03-29T12:47:43.145Z,15.98
2023-03-29T12:50:32.739Z,16.10
2023-03-29T12:53:25.795Z,16.01
2023-03-29T12:56:08.402Z,16.17
2023-03-29T12:59:15.733Z,16.37
2023-03-29T13:02:21.881Z,15.95
2023-03-29T13:05:02.047Z,16.49
2023-03-29T13:07:47.492Z,16.42
2023-03-29T13:10:42.219Z,16.61
2023-03-29T13:13:21.469Z,16.32
2023-03-29T13:15:55.017Z,16.08
2023-03-29T13:18:55.325Z,16.56
2023-03-29T13:22:06.059Z,16.74
2023-03-29T13:25:02.227Z,16.89
2023-03-29T13:27:52.360Z,16.94
2023-03-29T13:30:38.915Z,17.00
2023-03-29T13:34:03.870Z,17.08
2023-03-29T13:37:05.442Z,16.91
2023-03-29T13:39:53.026Z,16.80
2023-03-29T13:42:41.768Z,16.62
2023-03-29T13:45:27.455Z,16.96
2023-03-29T13:48:22.734Z,16.73
2023-03-29T13:51:02.053Z,17.06
2023-03-29T13:53:43.591Z,17.02
2023-03-29T13:56:28.334Z,17.13
2023-03-29T13:59:23.985Z,17.29
2023-03-29T14:02:00.552Z,17.57
2023-03-29T14:04:46.676Z,17.38
2023-03-29T14:07:26.133Z,17.36
2023-03-29T14:09:59.874Z,17.33
2023-03-29T14:12:41.730Z,17.41
2023-03-29T14:15:24.629Z,17.22
2023-03-29T14:18:00.249Z,17.08
2023-03-29T14:20:33.669Z,17.15
2023-03-29T14:23:13.319Z,16.98
2023-03-29T14:25:48.100Z,16.74
2023-03-29T14:28:27.853Z,16.71
2023-03-29T14:31:03.082Z,16.84
2023-03-29T14:33:37.730Z,16.76
2023-03-29T14:36:17.836Z,16.56
2023-03-29T14:38:59.642Z,16.76
2023-03-29T14:41:36.779Z,17.03
2023-03-29T14:44:09.458Z,17.16
2023-03-29T14:46:46.834Z,17.11
2023-03-29T14:49:22.868Z,17.39
2023-03-29T14:51:56.688Z,17.22
2023-03-29T14:54:34.039Z,17.23
2023-03-29T14:57:07.307Z,17.70
2023-03-29T14:59:43.388Z,17.45
2023-03-29T15:02:32.428Z,18.03
2023-03-29T15:05:25.570Z,18.20
2023-03-29T15:07:58.627Z,17.90
2023-03-29T15:10:36.651Z,18.12
2023-03-29T15:13:21.679Z,17.70
2023-03-29T15:16:00.750Z,17.98
2023-03-29T15:18:40.026Z,18.21
2023-03-29T15:21:18.164Z,17.65
2023-03-29T15:23:56.048Z,17.78
2023-03-29T15:26:36.629Z,17.39
2023-03-29T15:29:23.225Z,17.17
2023-03-29T15:31:58.969Z,17.01
2023-03-29T15:34:33.909Z,17.16
2023-03-29T15:37:08.108Z,16.75
2023-03-29T15:39:44.283Z,16.58
2023-03-29T15:42:42.686Z,16.64
2023-03-29T15:45:25.483Z,16.67
2023-03-29T15:48:22.826Z,16.80
2023-03-29T15:54:12.051Z,16.74
2023-03-29T15:56:53.027Z,16.65
2023-03-29T15:59:37.701Z,16.82
2023-03-29T16:02:24.389Z,16.81
2023-03-29T16:04:57.099Z,16.89
2023-03-29T16:07:30.125Z,16.60
2023-03-29T16:10:02.740Z,16.61
2023-03-29T16:12:37.842Z,16.90
2023-03-29T16:15:22.058Z,17.09
2023-03-29T16:17:54.653Z,16.98
2023-03-29T16:20:27.235Z,16.89
2023-03-29T16:22:59.759Z,16.90
2023-03-29T16:25:32.552Z,16.99
2023-03-29T16:28:07.793Z,17.01
2023-03-29T16:30:40.593Z,16.67
2023-03-29T16:33:13.290Z,16.85
2023-03-29T16:35:45.996Z,16.86
2023-03-29T16:38:18.655Z,16.71
2023-03-29T16:40:51.294Z,16.86
2023-03-29T16:43:23.870Z,16.70
2023-03-29T16:45:56.968Z,16.71
2023-03-29T16:48:29.588Z,16.41
2023-03-29T16:51:03.028Z,16.36
2023-03-29T16:53:35.781Z,16.43
2023-03-29T16:56:08.879Z,16.33
2023-03-29T16:58:41.647Z,16.40
2023-03-29T17:01:17.928Z,16.37
2023-03-29T17:03:50.556Z,16.30
2023-03-29T17:06:23.185Z,16.13
2023-03-29T17:08:55.764Z,15.95
2023-03-29T17:11:28.966Z,16.08
2023-03-29T17:14:01.784Z,16.25
2023-03-29T17:16:34.465Z,16.19
2023-03-29T17:19:06.967Z,16.15
2023-03-29T17:21:39.672Z,15.98
2023-03-29T17:24:12.197Z,16.09
2023-03-29T17:26:45.887Z,15.98
2023-03-29T17:29:18.543Z,15.85
2023-03-29T17:31:51.523Z,15.80
2023-03-29T17:34:24.070Z,15.64
2023-03-29T17:36:56.694Z,15.73
2023-03-29T17:39:30.023Z,15.73
2023-03-29T17:42:05.704Z,15.70
2023-03-29T17:44:38.252Z,15.66
2023-03-29T17:47:10.899Z,15.60
2023-03-29T17:49:43.364Z,15.44
2023-03-29T17:52:19.974Z,15.51
2023-03-29T17:54:52.802Z,15.39
2023-03-29T17:57:25.476Z,15.30
2023-03-29T17:59:58.067Z,15.23
2023-03-29T18:02:30.690Z,15.13
2023-03-29T18:05:04.445Z,15.18
2023-03-29T18:07:37.576Z,15.09
2023-03-29T18:10:10.830Z,15.09
2023-03-29T18:12:43.569Z,15.06
2023-03-29T18:15:18.496Z,14.97
2023-03-29T18:18:02.381Z,14.78
2023-03-29T18:20:35.008Z,14.88
2023-03-29T18:23:07.490Z,14.81
2023-03-29T18:25:40.099Z,14.86
2023-03-29T18:28:14.769Z,14.86
2023-03-29T18:30:52.308Z,14.73
2023-03-29T18:33:25.674Z,14.80
2023-03-29T18:36:00.479Z,14.83
2023-03-29T18:38:36.525Z,14.88
2023-03-29T18:41:12.323Z,14.65
2023-03-29T18:43:47.120Z,14.75
2023-03-29T18:46:19.835Z,14.71
2023-03-29T18:48:54.370Z,14.73
2023-03-29T18:51:28.326Z,14.69
2023-03-29T18:54:01.611Z,14.66
2023-03-29T18:56:35.584Z,14.62
2023-03-29T18:59:08.229Z,14.57
2023-03-29T19:01:41.217Z,14.61
2023-03-29T19:04:14.400Z,14.45
2023-03-29T19:06:47.556Z,14.36
2023-03-29T19:09:20.139Z,14.43
2023-03-29T19:11:52.837Z,14.43
2023-03-29T19:14:29.219Z,14.41
2023-03-29T19:17:02.028Z,14.13
2023-03-29T19:19:42.965Z,14.36
2023-03-29T19:22:19.254Z,14.25
2023-03-29T19:24:54.812Z,14.27
2023-03-29T19:27:32.699Z,14.29
2023-03-29T19:30:09.565Z,14.19
2023-03-29T19:32:44.473Z,14.19
2023-03-29T19:35:27.816Z,14.11
2023-03-29T19:38:03.125Z,14.05
2023-03-29T19:40:37.004Z,14.03
2023-03-29T19:43:09.798Z,13.97
2023-03-29T19:45:48.656Z,13.96
2023-03-29T19:48:22.943Z,13.98
2023-03-29T19:51:05.226Z,14.02
2023-03-29T19:53:41.783Z,13.89
2023-03-29T19:56:17.557Z,13.91
2023-03-29T19:58:56.615Z,13.65
2023-03-29T20:01:32.236Z,13.76
2023-03-29T20:04:04.951Z,13.73
2023-03-29T20:06:37.577Z,13.81
2023-03-29T20:09:11.213Z,13.83
2023-03-29T20:11:44.407Z,13.81
2023-03-29T20:14:16.943Z,13.78
2023-03-29T20:16:50.480Z,13.80
2023-03-29T20:19:25.257Z,13.82
2023-03-29T20:21:58.773Z,13.89
2023-03-29T20:24:32.528Z,13.76
2023-03-29T20:27:05.293Z,13.75
2023-03-29T20:29:37.961Z,13.78
2023-03-29T20:32:10.679Z,13.69
2023-03-29T20:34:43.231Z,13.67
2023-03-29T20:37:15.698Z,13.56
2023-03-29T20:39:49.511Z,13.70
2023-03-29T20:42:24.480Z,13.67
2023-03-29T20:44:57.079Z,13.58
2023-03-29T20:47:30.154Z,13.63
2023-03-29T20:50:04.138Z,13.58
2023-03-29T20:52:36.617Z,13.61
2023-03-29T20:55:09.438Z,13.64
2023-03-29T20:57:42.153Z,13.63
2023-03-29T21:00:15.515Z,13.61
2023-03-29T21:02:48.267Z,13.54
2023-03-29T21:05:22.348Z,13.59
2023-03-29T21:07:55.187Z,13.31
2023-03-29T21:10:28.304Z,13.43
2023-03-29T21:13:02.901Z,13.63
2023-03-29T21:15:35.909Z,13.53
2023-03-29T21:18:08.846Z,13.54
2023-03-29T21:20:42.005Z,13.51
2023-03-29T21:23:14.625Z,13.44
2023-03-29T21:25:47.130Z,13.59
2023-03-29T21:28:19.654Z,13.55
2023-03-29T21:30:52.186Z,13.38
2023-03-29T21:33:24.859Z,13.51
2023-03-29T21:35:57.374Z,13.38
2023-03-29T21:38:29.915Z,13.54
2023-03-29T21:41:05.364Z,13.44
2023-03-29T21:43:39.107Z,13.47
2023-03-29T21:46:12.511Z,13.55
2023-03-29T21:48:45.230Z,13.50
2023-03-29T21:51:17.915Z,13.40
2023-03-29T21:53:50.650Z,13.41
2023-03-29T21:56:23.331Z,13.42
2023-03-29T21:58:55.918Z,13.27
2023-03-29T22:01:28.718Z,13.26
2023-03-29T22:04:01.282Z,13.44
2023-03-29T22:06:33.863Z,13.30
2023-03-29T22:09:06.371Z,13.32
2023-03-29T22:11:39.153Z,13.27
2023-03-29T22:14:11.713Z,13.25
2023-03-29T22:16:45.498Z,13.28
2023-03-29T22:19:18.035Z,13.06
2023-03-29T22:21:51.345Z,13.09
2023-03-29T22:24:23.917Z,13.21
2023-03-29T22:26:56.434Z,13.11
2023-03-29T22:29:28.978Z,13.15
2023-03-29T22:32:01.826Z,13.10
2023-03-29T22:34:34.372Z,13.08
2023-03-29T22:37:06.878Z,12.84
2023-03-29T22:39:39.421Z,12.89
2023-03-29T22:42:11.970Z,12.89
2023-03-29T22:44:44.498Z,12.88
2023-03-29T22:47:17.500Z,12.86
2023-03-29T22:49:50.038Z,12.95
2023-03-29T22:52:23.690Z,12.84
2023-03-29T22:54:56.307Z,12.91
2023-03-29T22:57:28.896Z,12.81
2023-03-29T23:00:01.559Z,12.78
2023-03-29T23:02:34.437Z,13.00
2023-03-29T23:05:07.984Z,12.92
2023-03-29T23:07:40.472Z,12.87
2023-03-29T23:10:13.053Z,12.95
2023-03-29T23:12:45.606Z,12.93
2023-03-29T23:15:18.156Z,13.07
2023-03-29T23:17:50.780Z,13.07
2023-03-29T23:20:24.191Z,13.18
2023-03-29T23:22:57.121Z,13.24
2023-03-29T23:25:30.068Z,13.17
2023-03-29T23:28:03.016Z,13.14
2023-03-29T23:30:38.601Z,13.05
2023-03-29T23:33:11.561Z,13.25
2023-03-29T23:35:44.153Z,13.23
2023-03-29T23:38:16.873Z,13.31
2023-03-29T23:41:01.970Z,13.27
2023-03-29T23:43:40.374Z,13.37
2023-03-29T23:46:17.235Z,13.53
2023-03-29T23:48:50.845Z,13.55
2023-03-29T23:51:27.975Z,13.52
2023-03-29T23:54:02.124Z,13.60
2023-03-29T23:56:34.658Z,13.81
2023-03-29T23:59:07.496Z,13.75
